sensor_id;sensor_type;location;lat;lon;timestamp;temperature;humidity
52669;DHT22;59898;52.786;6.892;2023-02-28T00:03:05;5.10;99.90
52669;DHT22;59898;52.786;6.892;2023-02-28T00:06:26;5.10;99.90
52669;DHT22;59898;52.786;6.892;2023-02-28T00:09:47;5.10;99.90
52669;DHT22;59898;52.786;6.892;2023-02-28T00:13:07;5.10;99.90
52669;DHT22;59898;52.786;6.892;2023-02-28T00:16:28;5.20;99.90
52669;DHT22;59898;52.786;6.892;2023-02-28T00:19:49;5.20;99.90
52669;DHT22;59898;52.786;6.892;2023-02-28T00:23:10;5.20;99.90
52669;DHT22;59898;52.786;6.892;2023-02-28T00:26:31;5.10;99.90
52669;DHT22;59898;52.786;6.892;2023-02-28T00:29:52;5.10;99.90
52669;DHT22;59898;52.786;6.892;2023-02-28T00:33:14;5.00;99.90
52669;DHT22;59898;52.786;6.892;2023-02-28T00:36:35;5.60;99.90
52669;DHT22;59898;52.786;6.892;2023-02-28T00:39:56;5.00;99.90
52669;DHT22;59898;52.786;6.892;2023-02-28T00:43:16;4.90;99.90
52669;DHT22;59898;52.786;6.892;2023-02-28T00:46:37;5.00;99.90
52669;DHT22;59898;52.786;6.892;2023-02-28T00:49:58;5.00;99.90
52669;DHT22;59898;52.786;6.892;2023-02-28T00:53:18;4.90;99.90
52669;DHT22;59898;52.786;6.892;2023-02-28T00:56:39;4.80;99.90
52669;DHT22;59898;52.786;6.892;2023-02-28T01:00:00;4.80;99.90
52669;DHT22;59898;52.786;6.892;2023-02-28T01:03:21;4.70;99.90
52669;DHT22;59898;52.786;6.892;2023-02-28T01:06:43;4.70;99.90
52669;DHT22;59898;52.786;6.892;2023-02-28T01:10:04;4.60;99.90
52669;DHT22;59898;52.786;6.892;2023-02-28T01:13:24;4.60;99.90
52669;DHT22;59898;52.786;6.892;2023-02-28T01:16:45;4.60;99.90
52669;DHT22;59898;52.786;6.892;2023-02-28T01:20:07;4.60;99.90
52669;DHT22;59898;52.786;6.892;2023-02-28T01:23:28;4.70;99.90
52669;DHT22;59898;52.786;6.892;2023-02-28T01:26:48;4.80;99.90
52669;DHT22;59898;52.786;6.892;2023-02-28T01:30:09;4.80;99.90
52669;DHT22;59898;52.786;6.892;2023-02-28T01:33:30;4.70;99.90
52669;DHT22;59898;52.786;6.892;2023-02-28T01:36:51;4.60;99.90
52669;DHT22;59898;52.786;6.892;2023-02-28T01:40:12;4.60;99.90
52669;DHT22;59898;52.786;6.892;2023-02-28T01:47:03;4.80;99.90
52669;DHT22;59898;52.786;6.892;2023-02-28T01:50:26;4.30;99.90
52669;DHT22;59898;52.786;6.892;2023-02-28T01:53:53;4.20;99.90
52669;DHT22;59898;52.786;6.892;2023-02-28T01:57:17;4.20;99.90
52669;DHT22;59898;52.786;6.892;2023-02-28T02:00:39;4.20;99.90
52669;DHT22;59898;52.786;6.892;2023-02-28T02:04:02;4.20;99.90
52669;DHT22;59898;52.786;6.892;2023-02-28T02:07:25;4.20;99.90
52669;DHT22;59898;52.786;6.892;2023-02-28T02:10:56;4.30;99.90
52669;DHT22;59898;52.786;6.892;2023-02-28T02:14:38;4.30;99.90
52669;DHT22;59898;52.786;6.892;2023-02-28T02:29:36;4.20;99.90
52669;DHT22;59898;52.786;6.892;2023-02-28T02:36:49;4.20;99.90
52669;DHT22;59898;52.786;6.892;2023-02-28T02:40:20;4.70;99.90
52669;DHT22;59898;52.786;6.892;2023-02-28T02:43:52;4.30;99.90
52669;DHT22;59898;52.786;6.892;2023-02-28T02:47:20;4.30;99.90
52669;DHT22;59898;52.786;6.892;2023-02-28T02:50:47;4.40;99.90
52669;DHT22;59898;52.786;6.892;2023-02-28T02:54:19;4.50;99.90
52669;DHT22;59898;52.786;6.892;2023-02-28T02:58:17;4.50;99.90
52669;DHT22;59898;52.786;6.892;2023-02-28T03:01:32;4.60;99.90
52669;DHT22;59898;52.786;6.892;2023-02-28T03:04:57;4.70;99.90
52669;DHT22;59898;52.786;6.892;2023-02-28T03:08:21;4.80;99.90
52669;DHT22;59898;52.786;6.892;2023-02-28T03:11:42;4.70;99.90
52669;DHT22;59898;52.786;6.892;2023-02-28T03:15:15;4.70;99.90
52669;DHT22;59898;52.786;6.892;2023-02-28T03:22:32;4.70;99.90
52669;DHT22;59898;52.786;6.892;2023-02-28T03:26:17;4.80;99.90
52669;DHT22;59898;52.786;6.892;2023-02-28T03:30:45;4.70;99.90
52669;DHT22;59898;52.786;6.892;2023-02-28T03:33:50;4.80;99.90
52669;DHT22;59898;52.786;6.892;2023-02-28T03:37:19;4.70;99.90
52669;DHT22;59898;52.786;6.892;2023-02-28T03:40:46;4.70;99.90
52669;DHT22;59898;52.786;6.892;2023-02-28T03:44:21;4.70;99.90
52669;DHT22;59898;52.786;6.892;2023-02-28T03:47:59;4.70;99.90
52669;DHT22;59898;52.786;6.892;2023-02-28T03:51:23;4.80;99.90
52669;DHT22;59898;52.786;6.892;2023-02-28T03:54:48;4.80;99.90
52669;DHT22;59898;52.786;6.892;2023-02-28T03:58:32;4.90;99.90
52669;DHT22;59898;52.786;6.892;2023-02-28T04:01:57;4.90;99.90
52669;DHT22;59898;52.786;6.892;2023-02-28T04:05:20;5.00;99.90
52669;DHT22;59898;52.786;6.892;2023-02-28T04:08:41;5.20;99.90
52669;DHT22;59898;52.786;6.892;2023-02-28T04:12:02;5.00;99.90
52669;DHT22;59898;52.786;6.892;2023-02-28T04:15:23;4.90;99.90
52669;DHT22;59898;52.786;6.892;2023-02-28T04:18:45;4.90;99.90
52669;DHT22;59898;52.786;6.892;2023-02-28T04:22:05;5.00;99.90
52669;DHT22;59898;52.786;6.892;2023-02-28T04:25:26;4.70;99.90
52669;DHT22;59898;52.786;6.892;2023-02-28T04:28:47;4.60;99.90
52669;DHT22;59898;52.786;6.892;2023-02-28T04:32:07;4.40;99.90
52669;DHT22;59898;52.786;6.892;2023-02-28T04:35:28;4.40;99.90
52669;DHT22;59898;52.786;6.892;2023-02-28T04:38:49;4.30;99.90
52669;DHT22;59898;52.786;6.892;2023-02-28T04:42:10;4.10;99.90
52669;DHT22;59898;52.786;6.892;2023-02-28T04:45:31;4.10;99.90
52669;DHT22;59898;52.786;6.892;2023-02-28T04:48:54;4.80;99.90
52669;DHT22;59898;52.786;6.892;2023-02-28T04:52:14;4.10;99.90
52669;DHT22;59898;52.786;6.892;2023-02-28T04:55:35;4.40;99.90
52669;DHT22;59898;52.786;6.892;2023-02-28T04:58:56;4.10;99.90
52669;DHT22;59898;52.786;6.892;2023-02-28T05:02:16;4.40;99.90
52669;DHT22;59898;52.786;6.892;2023-02-28T05:05:37;4.00;99.90
52669;DHT22;59898;52.786;6.892;2023-02-28T05:08:58;4.00;99.90
52669;DHT22;59898;52.786;6.892;2023-02-28T05:12:19;4.00;99.90
52669;DHT22;59898;52.786;6.892;2023-02-28T05:15:40;4.20;99.90
52669;DHT22;59898;52.786;6.892;2023-02-28T05:19:01;4.00;99.90
52669;DHT22;59898;52.786;6.892;2023-02-28T05:22:21;4.10;99.90
52669;DHT22;59898;52.786;6.892;2023-02-28T05:25:42;4.10;99.90
52669;DHT22;59898;52.786;6.892;2023-02-28T05:29:03;4.20;99.90
52669;DHT22;59898;52.786;6.892;2023-02-28T05:32:23;5.00;99.90
52669;DHT22;59898;52.786;6.892;2023-02-28T05:35:44;4.30;99.90
52669;DHT22;59898;52.786;6.892;2023-02-28T05:39:06;4.30;99.90
52669;DHT22;59898;52.786;6.892;2023-02-28T05:42:27;4.30;99.90
52669;DHT22;59898;52.786;6.892;2023-02-28T05:45:49;4.30;99.90
52669;DHT22;59898;52.786;6.892;2023-02-28T05:49:09;4.30;99.90
52669;DHT22;59898;52.786;6.892;2023-02-28T05:52:30;4.40;99.90
52669;DHT22;59898;52.786;6.892;2023-02-28T05:55:50;4.40;99.90
52669;DHT22;59898;52.786;6.892;2023-02-28T05:59:12;4.40;99.90
52669;DHT22;59898;52.786;6.892;2023-02-28T06:02:33;4.40;99.90
52669;DHT22;59898;52.786;6.892;2023-02-28T06:05:54;4.40;99.90
52669;DHT22;59898;52.786;6.892;2023-02-28T06:09:15;4.50;99.90
52669;DHT22;59898;52.786;6.892;2023-02-28T06:12:37;4.50;99.90
52669;DHT22;59898;52.786;6.892;2023-02-28T06:16:01;4.50;99.90
52669;DHT22;59898;52.786;6.892;2023-02-28T06:19:21;4.60;99.90
52669;DHT22;59898;52.786;6.892;2023-02-28T06:22:43;4.60;99.90
52669;DHT22;59898;52.786;6.892;2023-02-28T06:26:04;4.60;99.90
52669;DHT22;59898;52.786;6.892;2023-02-28T06:29:25;4.60;99.90
52669;DHT22;59898;52.786;6.892;2023-02-28T06:32:45;4.70;99.90
52669;DHT22;59898;52.786;6.892;2023-02-28T06:36:07;4.60;99.90
52669;DHT22;59898;52.786;6.892;2023-02-28T06:39:31;4.60;99.90
52669;DHT22;59898;52.786;6.892;2023-02-28T06:42:52;4.70;99.90
52669;DHT22;59898;52.786;6.892;2023-02-28T06:46:14;4.60;99.90
52669;DHT22;59898;52.786;6.892;2023-02-28T06:49:35;4.60;99.90
52669;DHT22;59898;52.786;6.892;2023-02-28T06:52:56;4.60;99.90
52669;DHT22;59898;52.786;6.892;2023-02-28T06:56:18;4.70;99.90
52669;DHT22;59898;52.786;6.892;2023-02-28T06:59:40;4.70;99.90
52669;DHT22;59898;52.786;6.892;2023-02-28T07:03:01;4.90;99.90
52669;DHT22;59898;52.786;6.892;2023-02-28T07:06:22;4.80;99.90
52669;DHT22;59898;52.786;6.892;2023-02-28T07:09:43;4.80;99.90
52669;DHT22;59898;52.786;6.892;2023-02-28T07:13:04;4.90;99.90
52669;DHT22;59898;52.786;6.892;2023-02-28T07:16:25;4.90;99.90
52669;DHT22;59898;52.786;6.892;2023-02-28T07:19:46;5.00;99.90
52669;DHT22;59898;52.786;6.892;2023-02-28T07:23:07;5.10;99.90
52669;DHT22;59898;52.786;6.892;2023-02-28T07:26:27;5.00;99.90
52669;DHT22;59898;52.786;6.892;2023-02-28T07:29:48;5.00;99.90
52669;DHT22;59898;52.786;6.892;2023-02-28T07:33:09;5.00;99.90
52669;DHT22;59898;52.786;6.892;2023-02-28T07:36:29;4.90;99.90
52669;DHT22;59898;52.786;6.892;2023-02-28T07:39:50;4.90;99.90
52669;DHT22;59898;52.786;6.892;2023-02-28T07:43:12;4.90;99.90
52669;DHT22;59898;52.786;6.892;2023-02-28T07:46:32;4.80;99.90
52669;DHT22;59898;52.786;6.892;2023-02-28T07:49:55;4.80;99.90
52669;DHT22;59898;52.786;6.892;2023-02-28T07:53:16;5.20;99.90
52669;DHT22;59898;52.786;6.892;2023-02-28T07:56:37;4.80;99.90
52669;DHT22;59898;52.786;6.892;2023-02-28T07:59:58;5.00;99.90
52669;DHT22;59898;52.786;6.892;2023-02-28T08:03:19;4.90;99.90
52669;DHT22;59898;52.786;6.892;2023-02-28T08:06:41;4.80;99.90
52669;DHT22;59898;52.786;6.892;2023-02-28T08:10:02;4.70;99.90
52669;DHT22;59898;52.786;6.892;2023-02-28T08:13:23;4.70;99.90
52669;DHT22;59898;52.786;6.892;2023-02-28T08:16:44;4.60;99.90
52669;DHT22;59898;52.786;6.892;2023-02-28T08:20:05;4.60;99.90
52669;DHT22;59898;52.786;6.892;2023-02-28T08:23:26;4.70;99.90
52669;DHT22;59898;52.786;6.892;2023-02-28T08:26:47;4.80;99.90
52669;DHT22;59898;52.786;6.892;2023-02-28T08:30:11;5.30;99.90
52669;DHT22;59898;52.786;6.892;2023-02-28T08:33:32;5.60;99.90
52669;DHT22;59898;52.786;6.892;2023-02-28T08:36:52;5.90;99.90
52669;DHT22;59898;52.786;6.892;2023-02-28T08:40:13;6.20;99.90
52669;DHT22;59898;52.786;6.892;2023-02-28T08:43:39;6.20;99.90
52669;DHT22;59898;52.786;6.892;2023-02-28T08:47:00;6.40;99.90
52669;DHT22;59898;52.786;6.892;2023-02-28T08:50:21;6.80;99.90
52669;DHT22;59898;52.786;6.892;2023-02-28T08:53:42;6.70;99.90
52669;DHT22;59898;52.786;6.892;2023-02-28T08:57:03;6.60;99.90
52669;DHT22;59898;52.786;6.892;2023-02-28T09:00:24;6.80;99.90
52669;DHT22;59898;52.786;6.892;2023-02-28T09:03:46;6.90;99.90
52669;DHT22;59898;52.786;6.892;2023-02-28T09:07:07;7.00;99.90
52669;DHT22;59898;52.786;6.892;2023-02-28T09:10:28;7.20;99.90
52669;DHT22;59898;52.786;6.892;2023-02-28T09:13:49;7.30;99.90
52669;DHT22;59898;52.786;6.892;2023-02-28T09:17:09;7.50;99.90
52669;DHT22;59898;52.786;6.892;2023-02-28T09:20:30;7.50;99.90
52669;DHT22;59898;52.786;6.892;2023-02-28T09:23:51;7.80;99.90
52669;DHT22;59898;52.786;6.892;2023-02-28T09:27:11;8.00;99.90
52669;DHT22;59898;52.786;6.892;2023-02-28T09:30:32;8.20;99.90
52669;DHT22;59898;52.786;6.892;2023-02-28T09:33:55;8.30;99.90
52669;DHT22;59898;52.786;6.892;2023-02-28T09:37:16;8.30;99.90
52669;DHT22;59898;52.786;6.892;2023-02-28T09:40:47;8.30;99.90
52669;DHT22;59898;52.786;6.892;2023-02-28T09:44:15;8.60;99.90
52669;DHT22;59898;52.786;6.892;2023-02-28T09:47:41;8.70;99.90
52669;DHT22;59898;52.786;6.892;2023-02-28T09:51:37;8.60;99.30
52669;DHT22;59898;52.786;6.892;2023-02-28T10:06:12;10.20;97.60
52669;DHT22;59898;52.786;6.892;2023-02-28T10:09:34;10.30;96.60
52669;DHT22;59898;52.786;6.892;2023-02-28T10:12:59;10.30;96.30
52669;DHT22;59898;52.786;6.892;2023-02-28T10:16:25;10.30;95.00
52669;DHT22;59898;52.786;6.892;2023-02-28T10:19:52;10.50;95.70
52669;DHT22;59898;52.786;6.892;2023-02-28T10:23:23;11.00;95.70
52669;DHT22;59898;52.786;6.892;2023-02-28T10:26:47;10.80;93.60
52669;DHT22;59898;52.786;6.892;2023-02-28T10:30:10;11.00;94.70
52669;DHT22;59898;52.786;6.892;2023-02-28T10:33:34;11.60;94.20
52669;DHT22;59898;52.786;6.892;2023-02-28T10:36:55;12.00;93.30
52669;DHT22;59898;52.786;6.892;2023-02-28T10:43:43;11.20;91.50
52669;DHT22;59898;52.786;6.892;2023-02-28T10:47:05;10.70;90.70
52669;DHT22;59898;52.786;6.892;2023-02-28T10:50:46;10.50;91.70
52669;DHT22;59898;52.786;6.892;2023-02-28T10:54:21;10.70;91.50
52669;DHT22;59898;52.786;6.892;2023-02-28T10:57:43;10.60;90.40
52669;DHT22;59898;52.786;6.892;2023-02-28T11:01:04;10.60;91.40
52669;DHT22;59898;52.786;6.892;2023-02-28T11:04:36;11.20;92.10
52669;DHT22;59898;52.786;6.892;2023-02-28T11:16:36;11.00;88.60
52669;DHT22;59898;52.786;6.892;2023-02-28T11:20:32;10.60;89.20
52669;DHT22;59898;52.786;6.892;2023-02-28T11:28:34;9.80;88.80
52669;DHT22;59898;52.786;6.892;2023-02-28T11:35:28;9.80;89.70
52669;DHT22;59898;52.786;6.892;2023-02-28T11:38:55;9.90;90.10
52669;DHT22;59898;52.786;6.892;2023-02-28T11:49:13;9.80;90.10
52669;DHT22;59898;52.786;6.892;2023-02-28T11:52:51;9.80;90.20
52669;DHT22;59898;52.786;6.892;2023-02-28T11:56:36;9.70;89.00
52669;DHT22;59898;52.786;6.892;2023-02-28T12:15:11;10.30;88.80
52669;DHT22;59898;52.786;6.892;2023-02-28T12:25:43;11.10;89.10
52669;DHT22;59898;52.786;6.892;2023-02-28T12:32:42;11.30;90.30
52669;DHT22;59898;52.786;6.892;2023-02-28T12:36:09;11.60;89.90
52669;DHT22;59898;52.786;6.892;2023-02-28T12:39:35;11.70;88.00
52669;DHT22;59898;52.786;6.892;2023-02-28T12:43:05;11.40;86.30
52669;DHT22;59898;52.786;6.892;2023-02-28T12:50:09;10.70;87.30
52669;DHT22;59898;52.786;6.892;2023-02-28T12:53:52;10.60;87.30
52669;DHT22;59898;52.786;6.892;2023-02-28T13:00:37;11.00;89.80
52669;DHT22;59898;52.786;6.892;2023-02-28T13:04:14;11.20;87.90
52669;DHT22;59898;52.786;6.892;2023-02-28T13:08:04;11.00;86.80
52669;DHT22;59898;52.786;6.892;2023-02-28T13:11:44;10.70;86.60
52669;DHT22;59898;52.786;6.892;2023-02-28T13:18:43;10.50;87.70
52669;DHT22;59898;52.786;6.892;2023-02-28T13:22:09;10.90;88.30
52669;DHT22;59898;52.786;6.892;2023-02-28T13:28:58;11.50;86.90
52669;DHT22;59898;52.786;6.892;2023-02-28T13:35:46;11.10;87.20
52669;DHT22;59898;52.786;6.892;2023-02-28T13:42:53;11.20;87.30
52669;DHT22;59898;52.786;6.892;2023-02-28T13:46:14;11.40;86.50
52669;DHT22;59898;52.786;6.892;2023-02-28T13:49:35;11.40;87.20
52669;DHT22;59898;52.786;6.892;2023-02-28T13:56:30;11.10;85.60
52669;DHT22;59898;52.786;6.892;2023-02-28T14:07:20;10.60;85.70
52669;DHT22;59898;52.786;6.892;2023-02-28T14:10:45;11.00;85.90
52669;DHT22;59898;52.786;6.892;2023-02-28T14:14:08;11.10;86.30
52669;DHT22;59898;52.786;6.892;2023-02-28T14:17:29;11.40;86.50
52669;DHT22;59898;52.786;6.892;2023-02-28T14:21:04;11.40;84.90
52669;DHT22;59898;52.786;6.892;2023-02-28T14:31:45;10.90;84.20
52669;DHT22;59898;52.786;6.892;2023-02-28T14:38:57;11.10;85.80
52669;DHT22;59898;52.786;6.892;2023-02-28T14:46:02;11.60;87.30
52669;DHT22;59898;52.786;6.892;2023-02-28T14:49:41;12.00;87.00
52669;DHT22;59898;52.786;6.892;2023-02-28T14:53:03;11.90;85.10
52669;DHT22;59898;52.786;6.892;2023-02-28T14:56:34;11.40;85.30
52669;DHT22;59898;52.786;6.892;2023-02-28T15:00:01;11.30;85.90
52669;DHT22;59898;52.786;6.892;2023-02-28T15:03:38;11.40;85.20
52669;DHT22;59898;52.786;6.892;2023-02-28T15:07:14;11.30;82.70
52669;DHT22;59898;52.786;6.892;2023-02-28T15:10:35;11.20;84.40
52669;DHT22;59898;52.786;6.892;2023-02-28T15:13:55;11.30;85.40
52669;DHT22;59898;52.786;6.892;2023-02-28T15:17:23;11.50;85.20
52669;DHT22;59898;52.786;6.892;2023-02-28T15:20:45;11.50;83.00
52669;DHT22;59898;52.786;6.892;2023-02-28T15:27:33;11.50;84.70
52669;DHT22;59898;52.786;6.892;2023-02-28T15:31:02;11.50;84.20
52669;DHT22;59898;52.786;6.892;2023-02-28T15:34:31;11.30;82.90
52669;DHT22;59898;52.786;6.892;2023-02-28T15:38:03;10.80;82.00
52669;DHT22;59898;52.786;6.892;2023-02-28T15:41:31;10.70;83.10
52669;DHT22;59898;52.786;6.892;2023-02-28T15:44:55;10.50;82.70
52669;DHT22;59898;52.786;6.892;2023-02-28T15:48:21;10.10;82.80
52669;DHT22;59898;52.786;6.892;2023-02-28T15:51:43;10.00;83.70
52669;DHT22;59898;52.786;6.892;2023-02-28T15:55:27;9.90;83.30
52669;DHT22;59898;52.786;6.892;2023-02-28T15:58:48;9.70;83.50
52669;DHT22;59898;52.786;6.892;2023-02-28T16:05:31;9.60;85.00
52669;DHT22;59898;52.786;6.892;2023-02-28T16:08:52;9.50;85.30
52669;DHT22;59898;52.786;6.892;2023-02-28T16:12:13;9.50;85.50
52669;DHT22;59898;52.786;6.892;2023-02-28T16:15:39;9.50;85.80
52669;DHT22;59898;52.786;6.892;2023-02-28T16:19:02;9.40;85.30
52669;DHT22;59898;52.786;6.892;2023-02-28T16:22:23;9.30;85.70
52669;DHT22;59898;52.786;6.892;2023-02-28T16:25:44;9.20;85.60
52669;DHT22;59898;52.786;6.892;2023-02-28T16:29:06;9.10;85.60
52669;DHT22;59898;52.786;6.892;2023-02-28T16:32:27;9.00;85.60
52669;DHT22;59898;52.786;6.892;2023-02-28T16:35:49;8.90;86.00
52669;DHT22;59898;52.786;6.892;2023-02-28T16:39:10;8.80;86.40
52669;DHT22;59898;52.786;6.892;2023-02-28T16:42:31;8.70;86.70
52669;DHT22;59898;52.786;6.892;2023-02-28T16:45:57;8.60;87.20
52669;DHT22;59898;52.786;6.892;2023-02-28T16:49:18;8.50;87.50
52669;DHT22;59898;52.786;6.892;2023-02-28T16:52:39;8.40;87.80
52669;DHT22;59898;52.786;6.892;2023-02-28T16:56:00;8.30;88.30
52669;DHT22;59898;52.786;6.892;2023-02-28T16:59:24;8.30;88.60
52669;DHT22;59898;52.786;6.892;2023-02-28T17:02:45;8.20;89.40
52669;DHT22;59898;52.786;6.892;2023-02-28T17:06:11;8.20;89.30
52669;DHT22;59898;52.786;6.892;2023-02-28T17:09:36;8.10;89.50
52669;DHT22;59898;52.786;6.892;2023-02-28T17:12:57;8.00;89.80
52669;DHT22;59898;52.786;6.892;2023-02-28T17:16:29;7.80;90.00
52669;DHT22;59898;52.786;6.892;2023-02-28T17:19:50;7.70;90.20
52669;DHT22;59898;52.786;6.892;2023-02-28T17:23:11;7.60;90.40
52669;DHT22;59898;52.786;6.892;2023-02-28T17:26:32;7.40;90.50
52669;DHT22;59898;52.786;6.892;2023-02-28T17:29:52;7.30;90.60
52669;DHT22;59898;52.786;6.892;2023-02-28T17:33:14;7.30;90.70
52669;DHT22;59898;52.786;6.892;2023-02-28T17:36:35;7.20;90.80
52669;DHT22;59898;52.786;6.892;2023-02-28T17:39:57;7.10;91.00
52669;DHT22;59898;52.786;6.892;2023-02-28T17:43:17;7.00;91.30
52669;DHT22;59898;52.786;6.892;2023-02-28T17:46:38;6.90;91.50
52669;DHT22;59898;52.786;6.892;2023-02-28T17:50:00;6.70;91.70
52669;DHT22;59898;52.786;6.892;2023-02-28T17:53:20;6.70;91.80
52669;DHT22;59898;52.786;6.892;2023-02-28T17:56:43;6.60;91.80
52669;DHT22;59898;52.786;6.892;2023-02-28T18:00:04;6.60;92.10
52669;DHT22;59898;52.786;6.892;2023-02-28T18:03:28;6.50;92.10
52669;DHT22;59898;52.786;6.892;2023-02-28T18:06:51;6.50;92.20
52669;DHT22;59898;52.786;6.892;2023-02-28T18:10:15;6.40;92.20
52669;DHT22;59898;52.786;6.892;2023-02-28T18:13:39;6.50;92.20
52669;DHT22;59898;52.786;6.892;2023-02-28T18:17:00;6.40;92.20
52669;DHT22;59898;52.786;6.892;2023-02-28T18:20:20;6.40;92.50
52669;DHT22;59898;52.786;6.892;2023-02-28T18:23:43;6.40;92.30
52669;DHT22;59898;52.786;6.892;2023-02-28T18:27:11;6.40;92.30
52669;DHT22;59898;52.786;6.892;2023-02-28T18:30:35;6.50;92.40
52669;DHT22;59898;52.786;6.892;2023-02-28T18:33:57;6.40;92.50
52669;DHT22;59898;52.786;6.892;2023-02-28T18:37:18;6.30;92.50
52669;DHT22;59898;52.786;6.892;2023-02-28T18:40:38;6.30;92.60
52669;DHT22;59898;52.786;6.892;2023-02-28T18:44:01;6.50;92.70
52669;DHT22;59898;52.786;6.892;2023-02-28T18:47:21;6.60;92.70
52669;DHT22;59898;52.786;6.892;2023-02-28T18:50:42;6.70;92.60
52669;DHT22;59898;52.786;6.892;2023-02-28T18:54:03;6.60;92.90
52669;DHT22;59898;52.786;6.892;2023-02-28T18:57:24;6.10;93.40
52669;DHT22;59898;52.786;6.892;2023-02-28T19:00:46;5.90;93.60
52669;DHT22;59898;52.786;6.892;2023-02-28T19:04:13;5.70;93.70
52669;DHT22;59898;52.786;6.892;2023-02-28T19:07:34;5.60;93.70
52669;DHT22;59898;52.786;6.892;2023-02-28T19:10:55;5.50;94.00
52669;DHT22;59898;52.786;6.892;2023-02-28T19:14:16;5.40;94.20
52669;DHT22;59898;52.786;6.892;2023-02-28T19:17:37;5.30;94.50
52669;DHT22;59898;52.786;6.892;2023-02-28T19:20:58;5.30;94.60
52669;DHT22;59898;52.786;6.892;2023-02-28T19:24:18;5.40;94.70
52669;DHT22;59898;52.786;6.892;2023-02-28T19:27:39;5.50;95.10
52669;DHT22;59898;52.786;6.892;2023-02-28T19:31:00;5.40;94.70
52669;DHT22;59898;52.786;6.892;2023-02-28T19:34:21;5.30;95.10
52669;DHT22;59898;52.786;6.892;2023-02-28T19:37:41;5.20;95.40
52669;DHT22;59898;52.786;6.892;2023-02-28T19:41:04;5.20;95.60
52669;DHT22;59898;52.786;6.892;2023-02-28T19:44:26;5.20;95.60
52669;DHT22;59898;52.786;6.892;2023-02-28T19:47:46;5.30;95.50
52669;DHT22;59898;52.786;6.892;2023-02-28T19:51:09;5.30;95.50
52669;DHT22;59898;52.786;6.892;2023-02-28T19:54:30;5.40;95.60
52669;DHT22;59898;52.786;6.892;2023-02-28T19:57:50;5.40;95.60
52669;DHT22;59898;52.786;6.892;2023-02-28T20:01:17;5.20;96.10
52669;DHT22;59898;52.786;6.892;2023-02-28T20:04:37;5.00;96.20
52669;DHT22;59898;52.786;6.892;2023-02-28T20:07:58;4.90;96.30
52669;DHT22;59898;52.786;6.892;2023-02-28T20:11:19;4.90;96.50
52669;DHT22;59898;52.786;6.892;2023-02-28T20:14:40;4.90;96.70
52669;DHT22;59898;52.786;6.892;2023-02-28T20:18:01;4.80;96.80
52669;DHT22;59898;52.786;6.892;2023-02-28T20:21:21;4.90;96.90
52669;DHT22;59898;52.786;6.892;2023-02-28T20:24:42;5.10;97.00
52669;DHT22;59898;52.786;6.892;2023-02-28T20:28:03;4.80;97.10
52669;DHT22;59898;52.786;6.892;2023-02-28T20:31:24;4.70;97.40
52669;DHT22;59898;52.786;6.892;2023-02-28T20:34:45;4.70;97.60
52669;DHT22;59898;52.786;6.892;2023-02-28T20:38:06;4.70;97.80
52669;DHT22;59898;52.786;6.892;2023-02-28T20:41:27;4.60;98.00
52669;DHT22;59898;52.786;6.892;2023-02-28T20:44:47;4.50;98.10
52669;DHT22;59898;52.786;6.892;2023-02-28T20:48:08;4.70;98.50
52669;DHT22;59898;52.786;6.892;2023-02-28T20:51:29;4.30;98.70
52669;DHT22;59898;52.786;6.892;2023-02-28T20:54:50;4.40;99.00
52669;DHT22;59898;52.786;6.892;2023-02-28T20:58:10;4.60;99.20
52669;DHT22;59898;52.786;6.892;2023-02-28T21:01:31;4.40;99.30
52669;DHT22;59898;52.786;6.892;2023-02-28T21:04:52;4.90;99.40
52669;DHT22;59898;52.786;6.892;2023-02-28T21:08:13;4.40;99.60
52669;DHT22;59898;52.786;6.892;2023-02-28T21:11:35;4.40;99.80
52669;DHT22;59898;52.786;6.892;2023-02-28T21:14:56;4.40;99.80
52669;DHT22;59898;52.786;6.892;2023-02-28T21:18:17;4.00;99.90
52669;DHT22;59898;52.786;6.892;2023-02-28T21:21:41;3.80;99.90
52669;DHT22;59898;52.786;6.892;2023-02-28T21:25:04;3.70;99.90
52669;DHT22;59898;52.786;6.892;2023-02-28T21:28:25;3.70;99.90
52669;DHT22;59898;52.786;6.892;2023-02-28T21:31:49;4.30;99.90
52669;DHT22;59898;52.786;6.892;2023-02-28T21:35:10;4.10;99.90
52669;DHT22;59898;52.786;6.892;2023-02-28T21:38:31;4.00;99.90
52669;DHT22;59898;52.786;6.892;2023-02-28T21:41:52;4.00;99.90
52669;DHT22;59898;52.786;6.892;2023-02-28T21:45:13;4.40;99.90
52669;DHT22;59898;52.786;6.892;2023-02-28T21:48:34;3.90;99.90
52669;DHT22;59898;52.786;6.892;2023-02-28T21:51:56;4.00;99.90
52669;DHT22;59898;52.786;6.892;2023-02-28T21:55:17;4.00;99.90
52669;DHT22;59898;52.786;6.892;2023-02-28T21:58:37;4.00;99.90
52669;DHT22;59898;52.786;6.892;2023-02-28T22:01:58;4.00;99.90
52669;DHT22;59898;52.786;6.892;2023-02-28T22:05:20;4.10;99.90
52669;DHT22;59898;52.786;6.892;2023-02-28T22:08:42;4.00;99.90
52669;DHT22;59898;52.786;6.892;2023-02-28T22:12:03;4.10;99.90
52669;DHT22;59898;52.786;6.892;2023-02-28T22:15:28;4.00;99.90
52669;DHT22;59898;52.786;6.892;2023-02-28T22:18:49;4.00;99.90
52669;DHT22;59898;52.786;6.892;2023-02-28T22:22:10;3.90;99.90
52669;DHT22;59898;52.786;6.892;2023-02-28T22:25:36;3.90;99.90
52669;DHT22;59898;52.786;6.892;2023-02-28T22:28:56;3.70;99.90
52669;DHT22;59898;52.786;6.892;2023-02-28T22:32:17;3.50;99.90
52669;DHT22;59898;52.786;6.892;2023-02-28T22:35:38;3.30;99.90
52669;DHT22;59898;52.786;6.892;2023-02-28T22:38:58;3.30;99.90
52669;DHT22;59898;52.786;6.892;2023-02-28T22:42:22;3.60;99.90
52669;DHT22;59898;52.786;6.892;2023-02-28T22:45:42;3.40;99.90
52669;DHT22;59898;52.786;6.892;2023-02-28T22:49:04;3.90;99.90
52669;DHT22;59898;52.786;6.892;2023-02-28T22:52:25;3.50;99.90
52669;DHT22;59898;52.786;6.892;2023-02-28T22:55:53;3.50;99.90
52669;DHT22;59898;52.786;6.892;2023-02-28T22:59:14;3.40;99.90
52669;DHT22;59898;52.786;6.892;2023-02-28T23:02:35;3.40;99.90
52669;DHT22;59898;52.786;6.892;2023-02-28T23:05:56;3.40;99.90
52669;DHT22;59898;52.786;6.892;2023-02-28T23:09:17;3.50;99.90
52669;DHT22;59898;52.786;6.892;2023-02-28T23:12:39;3.50;99.90
52669;DHT22;59898;52.786;6.892;2023-02-28T23:16:09;3.40;99.90
52669;DHT22;59898;52.786;6.892;2023-02-28T23:19:30;3.40;99.90
52669;DHT22;59898;52.786;6.892;2023-02-28T23:22:51;3.20;99.90
52669;DHT22;59898;52.786;6.892;2023-02-28T23:26:12;3.40;99.90
52669;DHT22;59898;52.786;6.892;2023-02-28T23:29:33;3.20;99.90
52669;DHT22;59898;52.786;6.892;2023-02-28T23:32:54;3.10;99.90
52669;DHT22;59898;52.786;6.892;2023-02-28T23:36:16;3.00;99.90
52669;DHT22;59898;52.786;6.892;2023-02-28T23:39:36;3.10;99.90
52669;DHT22;59898;52.786;6.892;2023-02-28T23:42:57;3.30;99.90
52669;DHT22;59898;52.786;6.892;2023-02-28T23:46:19;3.00;99.90
52669;DHT22;59898;52.786;6.892;2023-02-28T23:49:40;3.00;99.90
52669;DHT22;59898;52.786;6.892;2023-02-28T23:53:01;2.90;99.90
52669;DHT22;59898;52.786;6.892;2023-02-28T23:56:23;3.00;99.90
52669;DHT22;59898;52.786;6.892;2023-02-28T23:59:43;3.00;99.90
